sensor_id;sensor_type;location;lat;lon;timestamp;temperature;humidity
4308;DHT22;2167;53.448;9.984;2023-05-20T00:00:57;13.20;1.00
4308;DHT22;2167;53.448;9.984;2023-05-20T00:03:22;13.20;1.00
4308;DHT22;2167;53.448;9.984;2023-05-20T00:05:48;13.20;1.00
4308;DHT22;2167;53.448;9.984;2023-05-20T00:08:14;13.20;1.00
4308;DHT22;2167;53.448;9.984;2023-05-20T00:10:40;13.20;1.00
4308;DHT22;2167;53.448;9.984;2023-05-20T00:13:06;13.20;1.00
4308;DHT22;2167;53.448;9.984;2023-05-20T00:15:32;13.20;1.00
4308;DHT22;2167;53.448;9.984;2023-05-20T00:17:59;13.10;1.00
4308;DHT22;2167;53.448;9.984;2023-05-20T00:20:25;13.10;1.00
4308;DHT22;2167;53.448;9.984;2023-05-20T00:22:51;13.10;1.00
4308;DHT22;2167;53.448;9.984;2023-05-20T00:25:17;13.10;1.00
4308;DHT22;2167;53.448;9.984;2023-05-20T00:27:42;13.10;1.00
4308;DHT22;2167;53.448;9.984;2023-05-20T00:30:09;13.10;1.00
4308;DHT22;2167;53.448;9.984;2023-05-20T00:32:35;13.20;1.00
4308;DHT22;2167;53.448;9.984;2023-05-20T00:35:03;13.10;1.00
4308;DHT22;2167;53.448;9.984;2023-05-20T00:37:38;13.20;1.00
4308;DHT22;2167;53.448;9.984;2023-05-20T00:40:03;13.10;1.00
4308;DHT22;2167;53.448;9.984;2023-05-20T00:42:30;13.10;1.00
4308;DHT22;2167;53.448;9.984;2023-05-20T00:44:55;13.20;1.00
4308;DHT22;2167;53.448;9.984;2023-05-20T00:47:32;13.20;1.00
4308;DHT22;2167;53.448;9.984;2023-05-20T00:49:59;13.20;1.00
4308;DHT22;2167;53.448;9.984;2023-05-20T00:52:27;13.10;1.00
4308;DHT22;2167;53.448;9.984;2023-05-20T00:54:55;13.20;1.00
4308;DHT22;2167;53.448;9.984;2023-05-20T00:57:22;13.20;1.00
4308;DHT22;2167;53.448;9.984;2023-05-20T00:59:48;13.10;1.00
4308;DHT22;2167;53.448;9.984;2023-05-20T01:02:13;13.10;1.00
4308;DHT22;2167;53.448;9.984;2023-05-20T01:04:39;13.20;1.00
4308;DHT22;2167;53.448;9.984;2023-05-20T01:07:06;13.20;1.00
4308;DHT22;2167;53.448;9.984;2023-05-20T01:09:32;13.20;1.00
4308;DHT22;2167;53.448;9.984;2023-05-20T01:14:37;13.10;1.00
4308;DHT22;2167;53.448;9.984;2023-05-20T01:17:04;13.10;1.00
4308;DHT22;2167;53.448;9.984;2023-05-20T01:19:40;13.00;1.00
4308;DHT22;2167;53.448;9.984;2023-05-20T01:22:08;13.00;1.00
4308;DHT22;2167;53.448;9.984;2023-05-20T01:24:41;12.90;1.00
4308;DHT22;2167;53.448;9.984;2023-05-20T01:27:11;12.90;1.00
4308;DHT22;2167;53.448;9.984;2023-05-20T01:29:41;12.90;1.00
4308;DHT22;2167;53.448;9.984;2023-05-20T01:32:23;12.90;1.00
4308;DHT22;2167;53.448;9.984;2023-05-20T01:34:51;12.90;1.00
4308;DHT22;2167;53.448;9.984;2023-05-20T01:37:21;12.90;1.00
4308;DHT22;2167;53.448;9.984;2023-05-20T01:39:48;12.90;1.00
4308;DHT22;2167;53.448;9.984;2023-05-20T01:42:15;12.80;1.00
4308;DHT22;2167;53.448;9.984;2023-05-20T01:44:41;12.80;1.00
4308;DHT22;2167;53.448;9.984;2023-05-20T01:47:07;12.80;1.00
4308;DHT22;2167;53.448;9.984;2023-05-20T01:49:33;12.80;1.00
4308;DHT22;2167;53.448;9.984;2023-05-20T01:52:00;12.80;1.00
4308;DHT22;2167;53.448;9.984;2023-05-20T01:54:25;12.80;1.00
4308;DHT22;2167;53.448;9.984;2023-05-20T01:56:51;12.80;1.00
4308;DHT22;2167;53.448;9.984;2023-05-20T01:59:16;12.70;1.00
4308;DHT22;2167;53.448;9.984;2023-05-20T02:01:42;12.70;1.00
4308;DHT22;2167;53.448;9.984;2023-05-20T02:04:08;12.70;1.00
4308;DHT22;2167;53.448;9.984;2023-05-20T02:06:34;12.60;1.00
4308;DHT22;2167;53.448;9.984;2023-05-20T02:08:59;12.60;1.00
4308;DHT22;2167;53.448;9.984;2023-05-20T02:11:25;12.60;1.00
4308;DHT22;2167;53.448;9.984;2023-05-20T02:13:50;12.60;1.00
4308;DHT22;2167;53.448;9.984;2023-05-20T02:16:17;12.60;1.00
4308;DHT22;2167;53.448;9.984;2023-05-20T02:18:42;12.60;1.00
4308;DHT22;2167;53.448;9.984;2023-05-20T02:21:08;12.60;1.00
4308;DHT22;2167;53.448;9.984;2023-05-20T02:23:34;12.50;1.00
4308;DHT22;2167;53.448;9.984;2023-05-20T02:25:59;12.50;1.00
4308;DHT22;2167;53.448;9.984;2023-05-20T02:28:25;12.50;1.00
4308;DHT22;2167;53.448;9.984;2023-05-20T02:30:51;12.50;1.00
4308;DHT22;2167;53.448;9.984;2023-05-20T02:33:20;12.50;1.00
4308;DHT22;2167;53.448;9.984;2023-05-20T02:35:46;12.40;1.00
4308;DHT22;2167;53.448;9.984;2023-05-20T02:38:12;12.40;1.00
4308;DHT22;2167;53.448;9.984;2023-05-20T02:40:37;12.40;1.00
4308;DHT22;2167;53.448;9.984;2023-05-20T02:43:03;12.30;1.00
4308;DHT22;2167;53.448;9.984;2023-05-20T02:45:29;12.30;1.00
4308;DHT22;2167;53.448;9.984;2023-05-20T02:47:55;12.40;1.00
4308;DHT22;2167;53.448;9.984;2023-05-20T02:50:21;12.30;1.00
4308;DHT22;2167;53.448;9.984;2023-05-20T02:52:46;12.30;1.00
4308;DHT22;2167;53.448;9.984;2023-05-20T02:55:12;12.30;1.00
4308;DHT22;2167;53.448;9.984;2023-05-20T02:57:38;12.30;1.00
4308;DHT22;2167;53.448;9.984;2023-05-20T03:00:04;12.30;1.00
4308;DHT22;2167;53.448;9.984;2023-05-20T03:02:31;12.30;1.00
4308;DHT22;2167;53.448;9.984;2023-05-20T03:04:57;12.30;1.00
4308;DHT22;2167;53.448;9.984;2023-05-20T03:07:23;12.30;1.00
4308;DHT22;2167;53.448;9.984;2023-05-20T03:09:48;12.30;1.00
4308;DHT22;2167;53.448;9.984;2023-05-20T03:12:14;12.30;1.00
4308;DHT22;2167;53.448;9.984;2023-05-20T03:14:40;12.30;1.00
4308;DHT22;2167;53.448;9.984;2023-05-20T03:17:05;12.30;1.00
4308;DHT22;2167;53.448;9.984;2023-05-20T03:19:31;12.20;1.00
4308;DHT22;2167;53.448;9.984;2023-05-20T03:21:56;12.20;1.00
4308;DHT22;2167;53.448;9.984;2023-05-20T03:24:22;12.20;1.00
4308;DHT22;2167;53.448;9.984;2023-05-20T03:26:48;12.20;1.00
4308;DHT22;2167;53.448;9.984;2023-05-20T03:29:15;12.20;1.00
4308;DHT22;2167;53.448;9.984;2023-05-20T03:31:42;12.30;1.00
4308;DHT22;2167;53.448;9.984;2023-05-20T03:34:08;12.30;1.00
4308;DHT22;2167;53.448;9.984;2023-05-20T03:36:33;12.20;1.00
4308;DHT22;2167;53.448;9.984;2023-05-20T03:38:59;12.20;1.00
4308;DHT22;2167;53.448;9.984;2023-05-20T03:41:26;12.20;1.00
4308;DHT22;2167;53.448;9.984;2023-05-20T03:43:52;12.20;1.00
4308;DHT22;2167;53.448;9.984;2023-05-20T03:46:17;12.20;1.00
4308;DHT22;2167;53.448;9.984;2023-05-20T03:48:43;12.20;1.00
4308;DHT22;2167;53.448;9.984;2023-05-20T03:51:09;12.20;1.00
4308;DHT22;2167;53.448;9.984;2023-05-20T03:53:34;12.30;1.00
4308;DHT22;2167;53.448;9.984;2023-05-20T03:56:00;12.20;1.00
4308;DHT22;2167;53.448;9.984;2023-05-20T03:58:26;12.20;1.00
4308;DHT22;2167;53.448;9.984;2023-05-20T04:00:54;12.20;1.00
4308;DHT22;2167;53.448;9.984;2023-05-20T04:03:19;12.20;1.00
4308;DHT22;2167;53.448;9.984;2023-05-20T04:05:47;12.30;1.00
4308;DHT22;2167;53.448;9.984;2023-05-20T04:08:13;12.20;1.00
4308;DHT22;2167;53.448;9.984;2023-05-20T04:10:41;12.20;1.00
4308;DHT22;2167;53.448;9.984;2023-05-20T04:13:07;12.20;1.00
4308;DHT22;2167;53.448;9.984;2023-05-20T04:15:36;12.20;1.00
4308;DHT22;2167;53.448;9.984;2023-05-20T04:18:05;12.30;1.00
4308;DHT22;2167;53.448;9.984;2023-05-20T04:20:31;12.20;1.00
4308;DHT22;2167;53.448;9.984;2023-05-20T04:22:57;12.20;1.00
4308;DHT22;2167;53.448;9.984;2023-05-20T04:25:22;12.30;1.00
4308;DHT22;2167;53.448;9.984;2023-05-20T04:27:48;12.20;1.00
4308;DHT22;2167;53.448;9.984;2023-05-20T04:30:15;12.30;1.00
4308;DHT22;2167;53.448;9.984;2023-05-20T04:32:46;12.30;1.00
4308;DHT22;2167;53.448;9.984;2023-05-20T04:35:13;12.30;1.00
4308;DHT22;2167;53.448;9.984;2023-05-20T04:37:39;12.30;1.00
4308;DHT22;2167;53.448;9.984;2023-05-20T04:40:05;12.30;1.00
4308;DHT22;2167;53.448;9.984;2023-05-20T04:42:34;12.20;1.00
4308;DHT22;2167;53.448;9.984;2023-05-20T04:44:59;12.20;1.00
4308;DHT22;2167;53.448;9.984;2023-05-20T04:47:27;12.30;1.00
4308;DHT22;2167;53.448;9.984;2023-05-20T04:49:54;12.30;1.00
4308;DHT22;2167;53.448;9.984;2023-05-20T04:52:23;12.30;1.00
4308;DHT22;2167;53.448;9.984;2023-05-20T04:54:49;12.30;1.00
4308;DHT22;2167;53.448;9.984;2023-05-20T04:57:15;12.30;1.00
4308;DHT22;2167;53.448;9.984;2023-05-20T04:59:42;12.30;1.00
4308;DHT22;2167;53.448;9.984;2023-05-20T05:02:09;12.40;1.00
4308;DHT22;2167;53.448;9.984;2023-05-20T05:04:35;12.40;1.00
4308;DHT22;2167;53.448;9.984;2023-05-20T05:07:01;12.40;1.00
4308;DHT22;2167;53.448;9.984;2023-05-20T05:09:26;12.50;1.00
4308;DHT22;2167;53.448;9.984;2023-05-20T05:11:52;12.50;1.00
4308;DHT22;2167;53.448;9.984;2023-05-20T05:14:17;12.50;1.00
4308;DHT22;2167;53.448;9.984;2023-05-20T05:16:43;12.50;1.00
4308;DHT22;2167;53.448;9.984;2023-05-20T05:19:09;12.50;1.00
4308;DHT22;2167;53.448;9.984;2023-05-20T05:21:34;12.50;1.00
4308;DHT22;2167;53.448;9.984;2023-05-20T05:24:00;12.60;1.00
4308;DHT22;2167;53.448;9.984;2023-05-20T05:26:26;12.70;1.00
4308;DHT22;2167;53.448;9.984;2023-05-20T05:28:53;12.60;1.00
4308;DHT22;2167;53.448;9.984;2023-05-20T05:31:19;12.70;1.00
4308;DHT22;2167;53.448;9.984;2023-05-20T05:33:45;12.70;1.00
4308;DHT22;2167;53.448;9.984;2023-05-20T05:36:10;12.70;1.00
4308;DHT22;2167;53.448;9.984;2023-05-20T05:38:36;12.70;1.00
4308;DHT22;2167;53.448;9.984;2023-05-20T05:41:02;12.70;1.00
4308;DHT22;2167;53.448;9.984;2023-05-20T05:43:27;12.70;1.00
4308;DHT22;2167;53.448;9.984;2023-05-20T05:45:53;12.70;1.00
4308;DHT22;2167;53.448;9.984;2023-05-20T05:48:18;12.70;1.00
4308;DHT22;2167;53.448;9.984;2023-05-20T05:50:45;12.70;1.00
4308;DHT22;2167;53.448;9.984;2023-05-20T05:53:11;12.80;1.00
4308;DHT22;2167;53.448;9.984;2023-05-20T05:55:37;12.90;1.00
4308;DHT22;2167;53.448;9.984;2023-05-20T05:58:02;12.90;1.00
4308;DHT22;2167;53.448;9.984;2023-05-20T06:00:28;13.00;1.00
4308;DHT22;2167;53.448;9.984;2023-05-20T06:02:53;13.10;1.00
4308;DHT22;2167;53.448;9.984;2023-05-20T06:05:19;13.10;1.00
4308;DHT22;2167;53.448;9.984;2023-05-20T06:07:45;13.10;1.00
4308;DHT22;2167;53.448;9.984;2023-05-20T06:10:10;13.20;1.00
4308;DHT22;2167;53.448;9.984;2023-05-20T06:12:36;13.20;1.00
4308;DHT22;2167;53.448;9.984;2023-05-20T06:15:02;13.30;1.00
4308;DHT22;2167;53.448;9.984;2023-05-20T06:17:28;13.30;1.00
4308;DHT22;2167;53.448;9.984;2023-05-20T06:19:53;13.40;1.00
4308;DHT22;2167;53.448;9.984;2023-05-20T06:22:19;13.40;1.00
4308;DHT22;2167;53.448;9.984;2023-05-20T06:24:45;13.40;1.00
4308;DHT22;2167;53.448;9.984;2023-05-20T06:27:10;13.50;1.00
4308;DHT22;2167;53.448;9.984;2023-05-20T06:29:36;13.40;1.00
4308;DHT22;2167;53.448;9.984;2023-05-20T06:32:02;13.40;1.00
4308;DHT22;2167;53.448;9.984;2023-05-20T06:34:27;13.50;1.00
4308;DHT22;2167;53.448;9.984;2023-05-20T06:36:53;13.50;1.00
4308;DHT22;2167;53.448;9.984;2023-05-20T06:39:21;13.50;1.00
4308;DHT22;2167;53.448;9.984;2023-05-20T06:41:47;13.60;1.00
4308;DHT22;2167;53.448;9.984;2023-05-20T06:44:12;13.70;1.00
4308;DHT22;2167;53.448;9.984;2023-05-20T06:46:38;13.80;1.00
4308;DHT22;2167;53.448;9.984;2023-05-20T06:49:03;14.00;1.00
4308;DHT22;2167;53.448;9.984;2023-05-20T06:51:29;14.10;1.00
4308;DHT22;2167;53.448;9.984;2023-05-20T06:53:55;14.10;1.00
4308;DHT22;2167;53.448;9.984;2023-05-20T06:56:20;14.20;1.00
4308;DHT22;2167;53.448;9.984;2023-05-20T06:58:46;14.30;1.00
4308;DHT22;2167;53.448;9.984;2023-05-20T07:01:12;14.40;1.00
4308;DHT22;2167;53.448;9.984;2023-05-20T07:03:37;14.50;1.00
4308;DHT22;2167;53.448;9.984;2023-05-20T07:06:03;14.60;1.00
4308;DHT22;2167;53.448;9.984;2023-05-20T07:08:29;14.70;1.00
4308;DHT22;2167;53.448;9.984;2023-05-20T07:10:55;14.80;1.00
4308;DHT22;2167;53.448;9.984;2023-05-20T07:13:21;14.80;1.00
4308;DHT22;2167;53.448;9.984;2023-05-20T07:15:50;14.80;1.00
4308;DHT22;2167;53.448;9.984;2023-05-20T07:18:16;14.80;1.00
4308;DHT22;2167;53.448;9.984;2023-05-20T07:20:42;14.90;1.00
4308;DHT22;2167;53.448;9.984;2023-05-20T07:23:08;15.00;1.00
4308;DHT22;2167;53.448;9.984;2023-05-20T07:25:34;15.10;1.00
4308;DHT22;2167;53.448;9.984;2023-05-20T07:27:59;15.10;1.00
4308;DHT22;2167;53.448;9.984;2023-05-20T07:30:25;15.10;1.00
4308;DHT22;2167;53.448;9.984;2023-05-20T07:32:51;15.20;1.00
4308;DHT22;2167;53.448;9.984;2023-05-20T07:35:17;15.30;1.00
4308;DHT22;2167;53.448;9.984;2023-05-20T07:37:43;15.30;1.00
4308;DHT22;2167;53.448;9.984;2023-05-20T07:40:08;15.30;1.00
4308;DHT22;2167;53.448;9.984;2023-05-20T07:42:34;15.40;1.00
4308;DHT22;2167;53.448;9.984;2023-05-20T07:45:00;15.40;1.00
4308;DHT22;2167;53.448;9.984;2023-05-20T07:47:25;15.50;1.00
4308;DHT22;2167;53.448;9.984;2023-05-20T07:49:51;15.60;1.00
4308;DHT22;2167;53.448;9.984;2023-05-20T07:52:17;15.70;1.00
4308;DHT22;2167;53.448;9.984;2023-05-20T07:54:42;15.80;1.00
4308;DHT22;2167;53.448;9.984;2023-05-20T07:57:08;16.00;1.00
4308;DHT22;2167;53.448;9.984;2023-05-20T07:59:33;16.00;1.00
4308;DHT22;2167;53.448;9.984;2023-05-20T08:01:59;16.10;1.00
4308;DHT22;2167;53.448;9.984;2023-05-20T08:04:25;16.10;1.00
4308;DHT22;2167;53.448;9.984;2023-05-20T08:06:52;16.20;1.00
4308;DHT22;2167;53.448;9.984;2023-05-20T08:09:18;16.30;1.00
4308;DHT22;2167;53.448;9.984;2023-05-20T08:11:44;16.40;1.00
4308;DHT22;2167;53.448;9.984;2023-05-20T08:14:10;16.70;1.00
4308;DHT22;2167;53.448;9.984;2023-05-20T08:16:36;16.80;1.00
4308;DHT22;2167;53.448;9.984;2023-05-20T08:19:02;17.00;1.00
4308;DHT22;2167;53.448;9.984;2023-05-20T08:21:28;17.20;1.00
4308;DHT22;2167;53.448;9.984;2023-05-20T08:23:54;17.60;1.00
4308;DHT22;2167;53.448;9.984;2023-05-20T08:26:19;17.80;1.00
4308;DHT22;2167;53.448;9.984;2023-05-20T08:28:46;18.10;1.00
4308;DHT22;2167;53.448;9.984;2023-05-20T08:31:13;18.30;1.00
4308;DHT22;2167;53.448;9.984;2023-05-20T08:33:38;18.40;1.00
4308;DHT22;2167;53.448;9.984;2023-05-20T08:36:05;18.50;1.00
4308;DHT22;2167;53.448;9.984;2023-05-20T08:38:32;18.60;1.00
4308;DHT22;2167;53.448;9.984;2023-05-20T08:40:58;18.70;1.00
4308;DHT22;2167;53.448;9.984;2023-05-20T08:43:25;18.50;1.00
4308;DHT22;2167;53.448;9.984;2023-05-20T08:45:51;18.50;1.00
4308;DHT22;2167;53.448;9.984;2023-05-20T08:48:17;18.50;1.00
4308;DHT22;2167;53.448;9.984;2023-05-20T08:50:49;18.50;1.00
4308;DHT22;2167;53.448;9.984;2023-05-20T08:53:15;18.30;1.00
4308;DHT22;2167;53.448;9.984;2023-05-20T08:56:07;18.30;1.00
4308;DHT22;2167;53.448;9.984;2023-05-20T08:58:33;18.20;1.00
4308;DHT22;2167;53.448;9.984;2023-05-20T09:01:00;18.10;1.00
4308;DHT22;2167;53.448;9.984;2023-05-20T09:03:26;18.30;1.00
4308;DHT22;2167;53.448;9.984;2023-05-20T09:05:52;18.40;1.00
4308;DHT22;2167;53.448;9.984;2023-05-20T09:08:22;18.60;1.00
4308;DHT22;2167;53.448;9.984;2023-05-20T09:10:51;18.80;1.00
4308;DHT22;2167;53.448;9.984;2023-05-20T09:13:17;18.80;1.00
4308;DHT22;2167;53.448;9.984;2023-05-20T09:15:42;18.90;1.00
4308;DHT22;2167;53.448;9.984;2023-05-20T09:18:08;18.90;1.00
4308;DHT22;2167;53.448;9.984;2023-05-20T09:20:35;18.80;1.00
4308;DHT22;2167;53.448;9.984;2023-05-20T09:23:07;18.60;1.00
4308;DHT22;2167;53.448;9.984;2023-05-20T09:25:34;18.60;1.00
4308;DHT22;2167;53.448;9.984;2023-05-20T09:28:01;18.40;1.00
4308;DHT22;2167;53.448;9.984;2023-05-20T09:30:27;18.40;1.00
4308;DHT22;2167;53.448;9.984;2023-05-20T09:32:57;18.30;1.00
4308;DHT22;2167;53.448;9.984;2023-05-20T09:35:24;18.20;1.00
4308;DHT22;2167;53.448;9.984;2023-05-20T09:37:59;18.10;1.00
4308;DHT22;2167;53.448;9.984;2023-05-20T09:40:27;18.00;1.00
4308;DHT22;2167;53.448;9.984;2023-05-20T09:42:56;17.90;1.00
4308;DHT22;2167;53.448;9.984;2023-05-20T09:45:23;18.00;1.00
4308;DHT22;2167;53.448;9.984;2023-05-20T09:47:50;18.00;1.00
4308;DHT22;2167;53.448;9.984;2023-05-20T09:50:18;18.00;1.00
4308;DHT22;2167;53.448;9.984;2023-05-20T09:52:52;18.00;1.00
4308;DHT22;2167;53.448;9.984;2023-05-20T09:55:19;18.00;1.00
4308;DHT22;2167;53.448;9.984;2023-05-20T09:57:46;17.90;1.00
4308;DHT22;2167;53.448;9.984;2023-05-20T10:00:13;17.90;1.00
4308;DHT22;2167;53.448;9.984;2023-05-20T10:02:49;17.80;1.00
4308;DHT22;2167;53.448;9.984;2023-05-20T10:05:36;17.80;1.00
4308;DHT22;2167;53.448;9.984;2023-05-20T10:08:16;17.90;1.00
4308;DHT22;2167;53.448;9.984;2023-05-20T10:11:00;18.10;1.00
4308;DHT22;2167;53.448;9.984;2023-05-20T10:13:42;18.20;1.00
4308;DHT22;2167;53.448;9.984;2023-05-20T10:19:28;18.30;1.00
4308;DHT22;2167;53.448;9.984;2023-05-20T10:22:09;18.30;1.00
4308;DHT22;2167;53.448;9.984;2023-05-20T10:24:37;18.40;1.00
4308;DHT22;2167;53.448;9.984;2023-05-20T10:27:08;18.60;1.00
4308;DHT22;2167;53.448;9.984;2023-05-20T10:29:54;18.80;1.00
4308;DHT22;2167;53.448;9.984;2023-05-20T10:32:28;19.10;1.00
4308;DHT22;2167;53.448;9.984;2023-05-20T10:35:02;19.30;1.00
4308;DHT22;2167;53.448;9.984;2023-05-20T10:37:39;19.20;1.00
4308;DHT22;2167;53.448;9.984;2023-05-20T10:40:10;19.10;1.00
4308;DHT22;2167;53.448;9.984;2023-05-20T10:42:36;19.00;1.00
4308;DHT22;2167;53.448;9.984;2023-05-20T10:45:03;18.80;1.00
4308;DHT22;2167;53.448;9.984;2023-05-20T10:47:29;18.70;1.00
4308;DHT22;2167;53.448;9.984;2023-05-20T10:49:55;18.70;1.00
4308;DHT22;2167;53.448;9.984;2023-05-20T10:52:23;18.70;1.00
4308;DHT22;2167;53.448;9.984;2023-05-20T10:54:58;18.80;1.00
4308;DHT22;2167;53.448;9.984;2023-05-20T10:57:26;18.70;1.00
4308;DHT22;2167;53.448;9.984;2023-05-20T10:59:52;18.60;1.00
4308;DHT22;2167;53.448;9.984;2023-05-20T11:02:18;18.60;1.00
4308;DHT22;2167;53.448;9.984;2023-05-20T11:04:45;18.70;1.00
4308;DHT22;2167;53.448;9.984;2023-05-20T11:07:11;18.70;1.00
4308;DHT22;2167;53.448;9.984;2023-05-20T11:09:37;18.70;1.00
4308;DHT22;2167;53.448;9.984;2023-05-20T11:12:03;18.80;1.00
4308;DHT22;2167;53.448;9.984;2023-05-20T11:14:29;18.70;1.00
4308;DHT22;2167;53.448;9.984;2023-05-20T11:16:59;18.70;1.00
4308;DHT22;2167;53.448;9.984;2023-05-20T11:19:25;18.70;1.00
4308;DHT22;2167;53.448;9.984;2023-05-20T11:21:51;18.70;1.00
4308;DHT22;2167;53.448;9.984;2023-05-20T11:24:27;18.70;1.00
4308;DHT22;2167;53.448;9.984;2023-05-20T11:26:54;18.50;1.00
4308;DHT22;2167;53.448;9.984;2023-05-20T11:29:20;18.40;1.00
4308;DHT22;2167;53.448;9.984;2023-05-20T11:31:49;18.40;1.00
4308;DHT22;2167;53.448;9.984;2023-05-20T11:34:19;18.40;1.00
4308;DHT22;2167;53.448;9.984;2023-05-20T11:36:45;18.40;1.00
4308;DHT22;2167;53.448;9.984;2023-05-20T11:39:11;18.50;1.00
4308;DHT22;2167;53.448;9.984;2023-05-20T11:41:38;18.60;1.00
4308;DHT22;2167;53.448;9.984;2023-05-20T11:44:06;18.60;1.00
4308;DHT22;2167;53.448;9.984;2023-05-20T11:46:40;18.70;1.00
4308;DHT22;2167;53.448;9.984;2023-05-20T11:49:06;18.80;1.00
4308;DHT22;2167;53.448;9.984;2023-05-20T11:51:32;18.80;1.00
4308;DHT22;2167;53.448;9.984;2023-05-20T11:54:02;18.70;1.00
4308;DHT22;2167;53.448;9.984;2023-05-20T11:56:29;18.80;1.00
4308;DHT22;2167;53.448;9.984;2023-05-20T11:58:59;18.60;1.00
4308;DHT22;2167;53.448;9.984;2023-05-20T12:01:25;18.60;1.00
4308;DHT22;2167;53.448;9.984;2023-05-20T12:03:52;18.70;1.00
4308;DHT22;2167;53.448;9.984;2023-05-20T12:06:18;18.70;1.00
4308;DHT22;2167;53.448;9.984;2023-05-20T12:08:44;18.70;1.00
4308;DHT22;2167;53.448;9.984;2023-05-20T12:11:10;18.60;1.00
4308;DHT22;2167;53.448;9.984;2023-05-20T12:13:36;18.50;1.00
4308;DHT22;2167;53.448;9.984;2023-05-20T12:16:02;18.30;1.00
4308;DHT22;2167;53.448;9.984;2023-05-20T12:18:31;18.20;1.00
4308;DHT22;2167;53.448;9.984;2023-05-20T12:20:57;18.20;1.00
4308;DHT22;2167;53.448;9.984;2023-05-20T12:23:23;18.20;1.00
4308;DHT22;2167;53.448;9.984;2023-05-20T12:25:48;18.20;1.00
4308;DHT22;2167;53.448;9.984;2023-05-20T12:28:15;18.30;1.00
4308;DHT22;2167;53.448;9.984;2023-05-20T12:30:41;18.40;1.00
4308;DHT22;2167;53.448;9.984;2023-05-20T12:33:07;18.50;1.00
4308;DHT22;2167;53.448;9.984;2023-05-20T12:35:41;18.40;1.00
4308;DHT22;2167;53.448;9.984;2023-05-20T12:38:08;18.40;1.00
4308;DHT22;2167;53.448;9.984;2023-05-20T12:40:34;18.40;1.00
4308;DHT22;2167;53.448;9.984;2023-05-20T12:43:03;18.50;1.00
4308;DHT22;2167;53.448;9.984;2023-05-20T12:45:29;18.60;1.00
4308;DHT22;2167;53.448;9.984;2023-05-20T12:47:55;18.60;1.00
4308;DHT22;2167;53.448;9.984;2023-05-20T12:50:22;18.50;1.00
4308;DHT22;2167;53.448;9.984;2023-05-20T12:52:48;18.40;1.00
4308;DHT22;2167;53.448;9.984;2023-05-20T12:55:13;18.40;1.00
4308;DHT22;2167;53.448;9.984;2023-05-20T12:57:40;18.50;1.00
4308;DHT22;2167;53.448;9.984;2023-05-20T13:00:06;18.60;1.00
4308;DHT22;2167;53.448;9.984;2023-05-20T13:02:33;18.70;1.00
4308;DHT22;2167;53.448;9.984;2023-05-20T13:04:58;18.70;1.00
4308;DHT22;2167;53.448;9.984;2023-05-20T13:07:24;18.60;1.00
4308;DHT22;2167;53.448;9.984;2023-05-20T13:09:51;18.60;1.00
4308;DHT22;2167;53.448;9.984;2023-05-20T13:12:17;18.50;1.00
4308;DHT22;2167;53.448;9.984;2023-05-20T13:14:42;18.60;1.00
4308;DHT22;2167;53.448;9.984;2023-05-20T13:17:08;18.60;1.00
4308;DHT22;2167;53.448;9.984;2023-05-20T13:19:34;18.60;1.00
4308;DHT22;2167;53.448;9.984;2023-05-20T13:22:00;18.60;1.00
4308;DHT22;2167;53.448;9.984;2023-05-20T13:24:25;18.50;1.00
4308;DHT22;2167;53.448;9.984;2023-05-20T13:26:51;18.60;1.00
4308;DHT22;2167;53.448;9.984;2023-05-20T13:29:17;18.70;1.00
4308;DHT22;2167;53.448;9.984;2023-05-20T13:31:42;18.70;1.00
4308;DHT22;2167;53.448;9.984;2023-05-20T13:34:08;18.70;1.00
4308;DHT22;2167;53.448;9.984;2023-05-20T13:36:33;18.80;1.00
4308;DHT22;2167;53.448;9.984;2023-05-20T13:38:59;18.80;1.00
4308;DHT22;2167;53.448;9.984;2023-05-20T13:41:26;18.80;1.00
4308;DHT22;2167;53.448;9.984;2023-05-20T13:43:52;18.70;1.00
4308;DHT22;2167;53.448;9.984;2023-05-20T13:46:17;18.70;1.00
4308;DHT22;2167;53.448;9.984;2023-05-20T13:48:43;18.80;1.00
4308;DHT22;2167;53.448;9.984;2023-05-20T13:51:09;18.70;1.00
4308;DHT22;2167;53.448;9.984;2023-05-20T13:53:34;18.70;1.00
4308;DHT22;2167;53.448;9.984;2023-05-20T13:56:00;18.80;1.00
4308;DHT22;2167;53.448;9.984;2023-05-20T13:58:26;18.80;1.00
4308;DHT22;2167;53.448;9.984;2023-05-20T14:00:52;18.80;1.00
4308;DHT22;2167;53.448;9.984;2023-05-20T14:03:18;18.70;1.00
4308;DHT22;2167;53.448;9.984;2023-05-20T14:05:43;18.70;1.00
4308;DHT22;2167;53.448;9.984;2023-05-20T14:08:10;18.70;1.00
4308;DHT22;2167;53.448;9.984;2023-05-20T14:10:36;18.70;1.00
4308;DHT22;2167;53.448;9.984;2023-05-20T14:13:02;18.70;1.00
4308;DHT22;2167;53.448;9.984;2023-05-20T14:15:27;18.70;1.00
4308;DHT22;2167;53.448;9.984;2023-05-20T14:17:56;18.70;1.00
4308;DHT22;2167;53.448;9.984;2023-05-20T14:20:23;18.70;1.00
4308;DHT22;2167;53.448;9.984;2023-05-20T14:22:50;18.70;1.00
4308;DHT22;2167;53.448;9.984;2023-05-20T14:25:16;18.70;1.00
4308;DHT22;2167;53.448;9.984;2023-05-20T14:27:42;18.70;1.00
4308;DHT22;2167;53.448;9.984;2023-05-20T14:30:08;18.70;1.00
4308;DHT22;2167;53.448;9.984;2023-05-20T14:32:34;18.70;1.00
4308;DHT22;2167;53.448;9.984;2023-05-20T14:34:59;18.70;1.00
4308;DHT22;2167;53.448;9.984;2023-05-20T14:37:25;18.70;1.00
4308;DHT22;2167;53.448;9.984;2023-05-20T14:39:52;18.70;1.00
4308;DHT22;2167;53.448;9.984;2023-05-20T14:42:18;18.70;1.00
4308;DHT22;2167;53.448;9.984;2023-05-20T14:44:44;18.70;1.00
4308;DHT22;2167;53.448;9.984;2023-05-20T14:47:10;18.80;1.00
4308;DHT22;2167;53.448;9.984;2023-05-20T14:49:35;18.80;1.00
4308;DHT22;2167;53.448;9.984;2023-05-20T14:52:04;18.80;1.00
4308;DHT22;2167;53.448;9.984;2023-05-20T14:54:45;18.90;1.00
4308;DHT22;2167;53.448;9.984;2023-05-20T14:57:11;19.10;1.00
4308;DHT22;2167;53.448;9.984;2023-05-20T14:59:37;19.20;1.00
4308;DHT22;2167;53.448;9.984;2023-05-20T15:02:02;19.30;1.00
4308;DHT22;2167;53.448;9.984;2023-05-20T15:04:30;19.30;1.00
4308;DHT22;2167;53.448;9.984;2023-05-20T15:06:55;19.30;1.00
4308;DHT22;2167;53.448;9.984;2023-05-20T15:09:21;19.30;1.00
4308;DHT22;2167;53.448;9.984;2023-05-20T15:11:47;19.20;1.00
4308;DHT22;2167;53.448;9.984;2023-05-20T15:14:12;19.00;1.00
4308;DHT22;2167;53.448;9.984;2023-05-20T15:16:38;18.90;1.00
4308;DHT22;2167;53.448;9.984;2023-05-20T15:19:03;18.90;1.00
4308;DHT22;2167;53.448;9.984;2023-05-20T15:21:29;19.00;1.00
4308;DHT22;2167;53.448;9.984;2023-05-20T15:23:56;19.00;1.00
4308;DHT22;2167;53.448;9.984;2023-05-20T15:26:22;19.00;1.00
4308;DHT22;2167;53.448;9.984;2023-05-20T15:28:48;18.90;1.00
4308;DHT22;2167;53.448;9.984;2023-05-20T15:31:13;18.90;1.00
4308;DHT22;2167;53.448;9.984;2023-05-20T15:33:39;18.80;1.00
4308;DHT22;2167;53.448;9.984;2023-05-20T15:36:05;18.80;1.00
4308;DHT22;2167;53.448;9.984;2023-05-20T15:38:30;18.90;1.00
4308;DHT22;2167;53.448;9.984;2023-05-20T15:40:56;18.80;1.00
4308;DHT22;2167;53.448;9.984;2023-05-20T15:43:21;18.80;1.00
4308;DHT22;2167;53.448;9.984;2023-05-20T15:45:47;18.80;1.00
4308;DHT22;2167;53.448;9.984;2023-05-20T15:48:14;18.80;1.00
4308;DHT22;2167;53.448;9.984;2023-05-20T15:50:39;18.80;1.00
4308;DHT22;2167;53.448;9.984;2023-05-20T15:53:06;18.70;1.00
4308;DHT22;2167;53.448;9.984;2023-05-20T15:55:32;18.70;1.00
4308;DHT22;2167;53.448;9.984;2023-05-20T15:57:57;18.80;1.00
4308;DHT22;2167;53.448;9.984;2023-05-20T16:00:23;18.70;1.00
4308;DHT22;2167;53.448;9.984;2023-05-20T16:02:49;18.80;1.00
4308;DHT22;2167;53.448;9.984;2023-05-20T16:05:14;18.70;1.00
4308;DHT22;2167;53.448;9.984;2023-05-20T16:07:41;18.70;1.00
4308;DHT22;2167;53.448;9.984;2023-05-20T16:10:07;18.60;1.00
4308;DHT22;2167;53.448;9.984;2023-05-20T16:12:33;18.60;1.00
4308;DHT22;2167;53.448;9.984;2023-05-20T16:14:59;18.60;1.00
4308;DHT22;2167;53.448;9.984;2023-05-20T16:17:25;18.60;1.00
4308;DHT22;2167;53.448;9.984;2023-05-20T16:19:50;18.60;1.00